sensor_id;sensor_type;location;lat;lon;timestamp;P1;durP1;ratioP1;P2;durP2;ratioP2
78416;SDS011;67715;46.170;6.140;2023-04-19T00:00:44;9.40;;;6.07;;
78416;SDS011;67715;46.170;6.140;2023-04-19T00:03:10;7.83;;;5.60;;
78416;SDS011;67715;46.170;6.140;2023-04-19T00:05:35;9.48;;;6.45;;
78416;SDS011;67715;46.170;6.140;2023-04-19T00:08:02;7.57;;;5.93;;
78416;SDS011;67715;46.170;6.140;2023-04-19T00:10:28;10.27;;;6.15;;
78416;SDS011;67715;46.170;6.140;2023-04-19T00:12:53;9.63;;;6.63;;
78416;SDS011;67715;46.170;6.140;2023-04-19T00:15:19;9.80;;;5.70;;
78416;SDS011;67715;46.170;6.140;2023-04-19T00:17:44;12.07;;;6.80;;
78416;SDS011;67715;46.170;6.140;2023-04-19T00:20:10;10.98;;;6.35;;
78416;SDS011;67715;46.170;6.140;2023-04-19T00:22:38;10.45;;;6.10;;
78416;SDS011;67715;46.170;6.140;2023-04-19T00:25:04;11.13;;;6.38;;
78416;SDS011;67715;46.170;6.140;2023-04-19T00:27:30;10.75;;;6.47;;
78416;SDS011;67715;46.170;6.140;2023-04-19T00:29:55;10.10;;;6.37;;
78416;SDS011;67715;46.170;6.140;2023-04-19T00:32:21;9.65;;;5.75;;
78416;SDS011;67715;46.170;6.140;2023-04-19T00:34:47;10.32;;;6.63;;
78416;SDS011;67715;46.170;6.140;2023-04-19T00:37:12;10.43;;;6.23;;
78416;SDS011;67715;46.170;6.140;2023-04-19T00:39:37;10.70;;;6.43;;
78416;SDS011;67715;46.170;6.140;2023-04-19T00:42:03;11.13;;;6.97;;
78416;SDS011;67715;46.170;6.140;2023-04-19T00:44:28;11.90;;;6.70;;
78416;SDS011;67715;46.170;6.140;2023-04-19T00:46:54;8.73;;;5.83;;
78416;SDS011;67715;46.170;6.140;2023-04-19T00:49:20;8.95;;;5.75;;
78416;SDS011;67715;46.170;6.140;2023-04-19T00:51:46;10.70;;;6.55;;
78416;SDS011;67715;46.170;6.140;2023-04-19T00:54:12;10.82;;;6.35;;
78416;SDS011;67715;46.170;6.140;2023-04-19T00:56:38;10.05;;;6.63;;
78416;SDS011;67715;46.170;6.140;2023-04-19T00:59:04;9.38;;;6.32;;
78416;SDS011;67715;46.170;6.140;2023-04-19T01:01:29;10.02;;;6.20;;
78416;SDS011;67715;46.170;6.140;2023-04-19T01:03:55;9.27;;;6.30;;
78416;SDS011;67715;46.170;6.140;2023-04-19T01:06:20;10.53;;;6.63;;
78416;SDS011;67715;46.170;6.140;2023-04-19T01:08:46;9.43;;;6.68;;
78416;SDS011;67715;46.170;6.140;2023-04-19T01:11:12;9.82;;;6.85;;
78416;SDS011;67715;46.170;6.140;2023-04-19T01:13:37;11.00;;;6.93;;
78416;SDS011;67715;46.170;6.140;2023-04-19T01:16:02;10.10;;;6.23;;
78416;SDS011;67715;46.170;6.140;2023-04-19T01:18:28;10.75;;;6.85;;
78416;SDS011;67715;46.170;6.140;2023-04-19T01:20:57;10.68;;;5.88;;
78416;SDS011;67715;46.170;6.140;2023-04-19T01:23:23;10.57;;;6.50;;
78416;SDS011;67715;46.170;6.140;2023-04-19T01:25:48;10.23;;;6.43;;
78416;SDS011;67715;46.170;6.140;2023-04-19T01:28:14;10.32;;;7.15;;
78416;SDS011;67715;46.170;6.140;2023-04-19T01:30:39;9.00;;;5.85;;
78416;SDS011;67715;46.170;6.140;2023-04-19T01:33:05;13.30;;;7.50;;
78416;SDS011;67715;46.170;6.140;2023-04-19T01:35:30;11.13;;;7.53;;
78416;SDS011;67715;46.170;6.140;2023-04-19T01:37:55;12.03;;;6.53;;
78416;SDS011;67715;46.170;6.140;2023-04-19T01:40:24;11.07;;;6.73;;
78416;SDS011;67715;46.170;6.140;2023-04-19T01:42:50;11.88;;;6.80;;
78416;SDS011;67715;46.170;6.140;2023-04-19T01:45:15;12.85;;;7.82;;
78416;SDS011;67715;46.170;6.140;2023-04-19T01:47:41;11.52;;;6.90;;
78416;SDS011;67715;46.170;6.140;2023-04-19T01:50:06;9.73;;;6.90;;
78416;SDS011;67715;46.170;6.140;2023-04-19T01:52:32;9.98;;;6.43;;
78416;SDS011;67715;46.170;6.140;2023-04-19T01:54:57;9.00;;;5.73;;
78416;SDS011;67715;46.170;6.140;2023-04-19T01:57:22;9.93;;;6.60;;
78416;SDS011;67715;46.170;6.140;2023-04-19T01:59:48;9.83;;;6.53;;
78416;SDS011;67715;46.170;6.140;2023-04-19T02:02:14;9.68;;;6.93;;
78416;SDS011;67715;46.170;6.140;2023-04-19T02:04:39;11.85;;;6.68;;
78416;SDS011;67715;46.170;6.140;2023-04-19T02:07:05;10.85;;;6.47;;
78416;SDS011;67715;46.170;6.140;2023-04-19T02:09:30;11.30;;;5.97;;
78416;SDS011;67715;46.170;6.140;2023-04-19T02:11:59;9.68;;;6.22;;
78416;SDS011;67715;46.170;6.140;2023-04-19T02:14:24;12.73;;;6.63;;
78416;SDS011;67715;46.170;6.140;2023-04-19T02:16:50;10.37;;;6.37;;
78416;SDS011;67715;46.170;6.140;2023-04-19T02:19:15;11.87;;;6.73;;
78416;SDS011;67715;46.170;6.140;2023-04-19T02:21:40;9.97;;;5.93;;
78416;SDS011;67715;46.170;6.140;2023-04-19T02:24:06;10.83;;;6.37;;
78416;SDS011;67715;46.170;6.140;2023-04-19T02:26:31;10.02;;;6.80;;
78416;SDS011;67715;46.170;6.140;2023-04-19T02:28:57;9.73;;;6.40;;
78416;SDS011;67715;46.170;6.140;2023-04-19T02:31:22;10.32;;;6.63;;
78416;SDS011;67715;46.170;6.140;2023-04-19T02:33:47;11.30;;;6.97;;
78416;SDS011;67715;46.170;6.140;2023-04-19T02:36:13;10.73;;;6.30;;
78416;SDS011;67715;46.170;6.140;2023-04-19T02:38:38;8.98;;;6.15;;
78416;SDS011;67715;46.170;6.140;2023-04-19T02:41:03;9.80;;;6.50;;
78416;SDS011;67715;46.170;6.140;2023-04-19T02:43:30;11.82;;;6.95;;
78416;SDS011;67715;46.170;6.140;2023-04-19T02:45:55;10.47;;;6.70;;
78416;SDS011;67715;46.170;6.140;2023-04-19T02:48:20;13.03;;;6.93;;
78416;SDS011;67715;46.170;6.140;2023-04-19T02:50:46;11.93;;;6.88;;
78416;SDS011;67715;46.170;6.140;2023-04-19T02:53:11;11.73;;;6.85;;
78416;SDS011;67715;46.170;6.140;2023-04-19T02:55:36;9.73;;;6.00;;
78416;SDS011;67715;46.170;6.140;2023-04-19T02:58:02;11.77;;;6.22;;
78416;SDS011;67715;46.170;6.140;2023-04-19T03:00:27;9.73;;;6.40;;
78416;SDS011;67715;46.170;6.140;2023-04-19T03:02:53;13.05;;;6.88;;
78416;SDS011;67715;46.170;6.140;2023-04-19T03:05:19;10.50;;;6.32;;
78416;SDS011;67715;46.170;6.140;2023-04-19T03:07:45;11.07;;;6.57;;
78416;SDS011;67715;46.170;6.140;2023-04-19T03:10:10;10.67;;;6.70;;
78416;SDS011;67715;46.170;6.140;2023-04-19T03:12:35;10.77;;;6.10;;
78416;SDS011;67715;46.170;6.140;2023-04-19T03:15:01;14.73;;;7.60;;
78416;SDS011;67715;46.170;6.140;2023-04-19T03:17:26;9.50;;;6.33;;
78416;SDS011;67715;46.170;6.140;2023-04-19T03:19:51;11.57;;;7.07;;
78416;SDS011;67715;46.170;6.140;2023-04-19T03:22:17;11.53;;;5.87;;
78416;SDS011;67715;46.170;6.140;2023-04-19T03:24:42;12.63;;;6.53;;
78416;SDS011;67715;46.170;6.140;2023-04-19T03:27:07;10.13;;;6.60;;
78416;SDS011;67715;46.170;6.140;2023-04-19T03:29:33;10.20;;;6.67;;
78416;SDS011;67715;46.170;6.140;2023-04-19T03:31:59;14.37;;;7.10;;
78416;SDS011;67715;46.170;6.140;2023-04-19T03:34:25;11.35;;;6.57;;
78416;SDS011;67715;46.170;6.140;2023-04-19T03:36:50;11.73;;;7.00;;
78416;SDS011;67715;46.170;6.140;2023-04-19T03:39:15;12.30;;;6.93;;
78416;SDS011;67715;46.170;6.140;2023-04-19T03:41:40;13.40;;;7.40;;
78416;SDS011;67715;46.170;6.140;2023-04-19T03:44:06;12.60;;;7.07;;
78416;SDS011;67715;46.170;6.140;2023-04-19T03:46:31;11.97;;;7.77;;
78416;SDS011;67715;46.170;6.140;2023-04-19T03:48:57;9.95;;;6.38;;
78416;SDS011;67715;46.170;6.140;2023-04-19T03:51:22;10.85;;;6.03;;
78416;SDS011;67715;46.170;6.140;2023-04-19T03:53:48;12.13;;;6.47;;
78416;SDS011;67715;46.170;6.140;2023-04-19T03:56:13;10.10;;;6.40;;
78416;SDS011;67715;46.170;6.140;2023-04-19T03:58:38;10.03;;;6.00;;
78416;SDS011;67715;46.170;6.140;2023-04-19T04:01:04;10.30;;;6.63;;
78416;SDS011;67715;46.170;6.140;2023-04-19T04:03:30;12.15;;;6.40;;
78416;SDS011;67715;46.170;6.140;2023-04-19T04:05:56;11.05;;;7.05;;
78416;SDS011;67715;46.170;6.140;2023-04-19T04:08:22;11.43;;;6.30;;
78416;SDS011;67715;46.170;6.140;2023-04-19T04:10:47;11.43;;;6.83;;
78416;SDS011;67715;46.170;6.140;2023-04-19T04:13:12;9.87;;;6.83;;
78416;SDS011;67715;46.170;6.140;2023-04-19T04:15:37;9.53;;;6.03;;
78416;SDS011;67715;46.170;6.140;2023-04-19T04:18:03;11.00;;;6.10;;
78416;SDS011;67715;46.170;6.140;2023-04-19T04:20:29;10.82;;;6.65;;
78416;SDS011;67715;46.170;6.140;2023-04-19T04:22:55;11.80;;;6.90;;
78416;SDS011;67715;46.170;6.140;2023-04-19T04:25:20;12.68;;;7.40;;
78416;SDS011;67715;46.170;6.140;2023-04-19T04:27:46;10.82;;;7.20;;
78416;SDS011;67715;46.170;6.140;2023-04-19T04:30:14;15.10;;;7.95;;
78416;SDS011;67715;46.170;6.140;2023-04-19T04:32:39;12.05;;;7.15;;
78416;SDS011;67715;46.170;6.140;2023-04-19T04:35:05;13.50;;;7.57;;
78416;SDS011;67715;46.170;6.140;2023-04-19T04:37:31;15.05;;;7.30;;
78416;SDS011;67715;46.170;6.140;2023-04-19T04:39:58;10.80;;;6.95;;
78416;SDS011;67715;46.170;6.140;2023-04-19T04:42:23;13.07;;;7.60;;
78416;SDS011;67715;46.170;6.140;2023-04-19T04:44:49;13.15;;;6.93;;
78416;SDS011;67715;46.170;6.140;2023-04-19T04:47:15;11.63;;;6.70;;
78416;SDS011;67715;46.170;6.140;2023-04-19T04:49:41;14.02;;;7.30;;
78416;SDS011;67715;46.170;6.140;2023-04-19T04:52:06;15.33;;;8.83;;
78416;SDS011;67715;46.170;6.140;2023-04-19T04:54:32;13.60;;;7.20;;
78416;SDS011;67715;46.170;6.140;2023-04-19T04:56:58;14.25;;;8.00;;
78416;SDS011;67715;46.170;6.140;2023-04-19T04:59:23;14.68;;;7.63;;
78416;SDS011;67715;46.170;6.140;2023-04-19T05:01:49;14.63;;;7.97;;
78416;SDS011;67715;46.170;6.140;2023-04-19T05:04:14;14.80;;;8.73;;
78416;SDS011;67715;46.170;6.140;2023-04-19T05:06:39;16.20;;;8.63;;
78416;SDS011;67715;46.170;6.140;2023-04-19T05:09:05;15.55;;;8.02;;
78416;SDS011;67715;46.170;6.140;2023-04-19T05:11:31;14.32;;;8.32;;
78416;SDS011;67715;46.170;6.140;2023-04-19T05:13:56;15.07;;;8.43;;
78416;SDS011;67715;46.170;6.140;2023-04-19T05:16:22;13.87;;;7.77;;
78416;SDS011;67715;46.170;6.140;2023-04-19T05:18:47;14.70;;;7.47;;
78416;SDS011;67715;46.170;6.140;2023-04-19T05:21:13;14.60;;;8.40;;
78416;SDS011;67715;46.170;6.140;2023-04-19T05:23:38;15.80;;;8.97;;
78416;SDS011;67715;46.170;6.140;2023-04-19T05:26:03;16.10;;;7.93;;
78416;SDS011;67715;46.170;6.140;2023-04-19T05:28:29;14.15;;;8.25;;
78416;SDS011;67715;46.170;6.140;2023-04-19T05:30:54;13.23;;;7.65;;
78416;SDS011;67715;46.170;6.140;2023-04-19T05:33:20;13.73;;;8.32;;
78416;SDS011;67715;46.170;6.140;2023-04-19T05:35:45;14.97;;;8.53;;
78416;SDS011;67715;46.170;6.140;2023-04-19T05:38:10;13.17;;;8.40;;
78416;SDS011;67715;46.170;6.140;2023-04-19T05:40:35;14.93;;;8.77;;
78416;SDS011;67715;46.170;6.140;2023-04-19T05:43:01;14.30;;;8.47;;
78416;SDS011;67715;46.170;6.140;2023-04-19T05:45:26;13.43;;;8.20;;
78416;SDS011;67715;46.170;6.140;2023-04-19T05:47:51;16.17;;;9.30;;
78416;SDS011;67715;46.170;6.140;2023-04-19T05:50:17;19.17;;;8.87;;
78416;SDS011;67715;46.170;6.140;2023-04-19T05:52:44;14.38;;;8.85;;
78416;SDS011;67715;46.170;6.140;2023-04-19T05:55:10;13.18;;;7.75;;
78416;SDS011;67715;46.170;6.140;2023-04-19T05:57:35;17.13;;;9.23;;
78416;SDS011;67715;46.170;6.140;2023-04-19T06:00:01;14.67;;;8.10;;
78416;SDS011;67715;46.170;6.140;2023-04-19T06:02:26;14.73;;;8.13;;
78416;SDS011;67715;46.170;6.140;2023-04-19T06:04:51;14.33;;;7.77;;
78416;SDS011;67715;46.170;6.140;2023-04-19T06:07:17;16.13;;;8.83;;
78416;SDS011;67715;46.170;6.140;2023-04-19T06:09:42;14.30;;;8.50;;
78416;SDS011;67715;46.170;6.140;2023-04-19T06:12:07;16.80;;;8.00;;
78416;SDS011;67715;46.170;6.140;2023-04-19T06:14:33;15.13;;;7.93;;
78416;SDS011;67715;46.170;6.140;2023-04-19T06:16:59;16.10;;;7.97;;
78416;SDS011;67715;46.170;6.140;2023-04-19T06:19:24;14.43;;;9.00;;
78416;SDS011;67715;46.170;6.140;2023-04-19T06:21:49;13.03;;;7.20;;
78416;SDS011;67715;46.170;6.140;2023-04-19T06:24:15;14.73;;;8.77;;
78416;SDS011;67715;46.170;6.140;2023-04-19T06:26:40;15.60;;;8.27;;
78416;SDS011;67715;46.170;6.140;2023-04-19T06:29:05;14.90;;;8.82;;
78416;SDS011;67715;46.170;6.140;2023-04-19T06:31:31;15.17;;;8.57;;
78416;SDS011;67715;46.170;6.140;2023-04-19T06:33:57;16.48;;;8.57;;
78416;SDS011;67715;46.170;6.140;2023-04-19T06:36:22;17.63;;;8.13;;
78416;SDS011;67715;46.170;6.140;2023-04-19T06:38:47;15.17;;;7.77;;
78416;SDS011;67715;46.170;6.140;2023-04-19T06:41:14;15.27;;;8.50;;
78416;SDS011;67715;46.170;6.140;2023-04-19T06:43:39;16.58;;;9.43;;
78416;SDS011;67715;46.170;6.140;2023-04-19T06:46:06;17.42;;;9.38;;
78416;SDS011;67715;46.170;6.140;2023-04-19T06:48:32;15.75;;;8.90;;
78416;SDS011;67715;46.170;6.140;2023-04-19T06:50:58;12.98;;;8.43;;
78416;SDS011;67715;46.170;6.140;2023-04-19T06:53:23;15.82;;;9.77;;
78416;SDS011;67715;46.170;6.140;2023-04-19T06:55:56;15.45;;;8.93;;
78416;SDS011;67715;46.170;6.140;2023-04-19T06:58:25;17.98;;;9.68;;
78416;SDS011;67715;46.170;6.140;2023-04-19T07:00:51;15.77;;;9.40;;
78416;SDS011;67715;46.170;6.140;2023-04-19T07:03:17;17.98;;;9.82;;
78416;SDS011;67715;46.170;6.140;2023-04-19T07:05:42;16.00;;;9.77;;
78416;SDS011;67715;46.170;6.140;2023-04-19T07:08:07;18.50;;;8.70;;
78416;SDS011;67715;46.170;6.140;2023-04-19T07:10:33;15.27;;;9.33;;
78416;SDS011;67715;46.170;6.140;2023-04-19T07:12:58;15.27;;;9.23;;
78416;SDS011;67715;46.170;6.140;2023-04-19T07:15:23;16.67;;;8.90;;
78416;SDS011;67715;46.170;6.140;2023-04-19T07:17:49;15.63;;;8.70;;
78416;SDS011;67715;46.170;6.140;2023-04-19T07:20:14;15.30;;;9.10;;
78416;SDS011;67715;46.170;6.140;2023-04-19T07:22:40;13.98;;;9.20;;
78416;SDS011;67715;46.170;6.140;2023-04-19T07:25:05;17.77;;;9.57;;
78416;SDS011;67715;46.170;6.140;2023-04-19T07:27:31;18.38;;;9.95;;
78416;SDS011;67715;46.170;6.140;2023-04-19T07:29:56;16.50;;;9.57;;
78416;SDS011;67715;46.170;6.140;2023-04-19T07:32:21;17.50;;;9.00;;
78416;SDS011;67715;46.170;6.140;2023-04-19T07:34:47;15.93;;;9.23;;
78416;SDS011;67715;46.170;6.140;2023-04-19T07:37:12;16.67;;;10.03;;
78416;SDS011;67715;46.170;6.140;2023-04-19T07:39:38;18.33;;;9.30;;
78416;SDS011;67715;46.170;6.140;2023-04-19T07:42:03;15.27;;;8.63;;
78416;SDS011;67715;46.170;6.140;2023-04-19T07:44:29;18.60;;;10.00;;
78416;SDS011;67715;46.170;6.140;2023-04-19T07:46:54;20.70;;;11.07;;
78416;SDS011;67715;46.170;6.140;2023-04-19T07:49:19;19.00;;;9.40;;
78416;SDS011;67715;46.170;6.140;2023-04-19T07:51:45;17.17;;;9.23;;
78416;SDS011;67715;46.170;6.140;2023-04-19T07:54:10;16.88;;;10.93;;
78416;SDS011;67715;46.170;6.140;2023-04-19T07:56:36;18.52;;;8.90;;
78416;SDS011;67715;46.170;6.140;2023-04-19T07:59:02;16.95;;;9.95;;
78416;SDS011;67715;46.170;6.140;2023-04-19T08:01:28;16.45;;;9.48;;
78416;SDS011;67715;46.170;6.140;2023-04-19T08:03:53;16.17;;;9.38;;
78416;SDS011;67715;46.170;6.140;2023-04-19T08:06:19;16.43;;;9.27;;
78416;SDS011;67715;46.170;6.140;2023-04-19T08:08:45;14.80;;;8.85;;
78416;SDS011;67715;46.170;6.140;2023-04-19T08:11:11;16.67;;;9.60;;
78416;SDS011;67715;46.170;6.140;2023-04-19T08:13:36;14.77;;;8.80;;
78416;SDS011;67715;46.170;6.140;2023-04-19T08:16:01;15.60;;;9.10;;
78416;SDS011;67715;46.170;6.140;2023-04-19T08:18:27;15.82;;;9.10;;
78416;SDS011;67715;46.170;6.140;2023-04-19T08:20:52;14.47;;;9.33;;
78416;SDS011;67715;46.170;6.140;2023-04-19T08:23:17;19.00;;;10.77;;
78416;SDS011;67715;46.170;6.140;2023-04-19T08:25:43;16.93;;;9.57;;
78416;SDS011;67715;46.170;6.140;2023-04-19T08:28:08;15.67;;;9.60;;
78416;SDS011;67715;46.170;6.140;2023-04-19T08:30:34;15.80;;;9.68;;
78416;SDS011;67715;46.170;6.140;2023-04-19T08:32:59;16.23;;;9.27;;
78416;SDS011;67715;46.170;6.140;2023-04-19T08:35:25;15.88;;;10.05;;
78416;SDS011;67715;46.170;6.140;2023-04-19T08:37:50;15.50;;;10.00;;
78416;SDS011;67715;46.170;6.140;2023-04-19T08:40:16;18.63;;;8.90;;
78416;SDS011;67715;46.170;6.140;2023-04-19T08:42:41;16.17;;;9.15;;
78416;SDS011;67715;46.170;6.140;2023-04-19T08:45:07;15.15;;;8.98;;
78416;SDS011;67715;46.170;6.140;2023-04-19T08:47:35;16.42;;;9.25;;
78416;SDS011;67715;46.170;6.140;2023-04-19T08:50:01;14.90;;;9.02;;
78416;SDS011;67715;46.170;6.140;2023-04-19T08:52:28;13.70;;;8.98;;
78416;SDS011;67715;46.170;6.140;2023-04-19T08:54:54;16.20;;;9.85;;
78416;SDS011;67715;46.170;6.140;2023-04-19T08:57:20;13.90;;;8.85;;
78416;SDS011;67715;46.170;6.140;2023-04-19T08:59:45;16.35;;;9.52;;
78416;SDS011;67715;46.170;6.140;2023-04-19T09:02:14;14.48;;;9.50;;
78416;SDS011;67715;46.170;6.140;2023-04-19T09:04:40;18.15;;;9.65;;
78416;SDS011;67715;46.170;6.140;2023-04-19T09:07:05;14.37;;;9.03;;
78416;SDS011;67715;46.170;6.140;2023-04-19T09:09:32;15.63;;;8.90;;
78416;SDS011;67715;46.170;6.140;2023-04-19T09:11:58;16.65;;;9.73;;
78416;SDS011;67715;46.170;6.140;2023-04-19T09:14:24;15.00;;;9.25;;
78416;SDS011;67715;46.170;6.140;2023-04-19T09:16:50;17.33;;;9.98;;
78416;SDS011;67715;46.170;6.140;2023-04-19T09:19:16;16.67;;;9.23;;
78416;SDS011;67715;46.170;6.140;2023-04-19T09:21:42;16.35;;;9.57;;
78416;SDS011;67715;46.170;6.140;2023-04-19T09:24:08;17.00;;;9.95;;
78416;SDS011;67715;46.170;6.140;2023-04-19T09:26:33;18.20;;;9.98;;
78416;SDS011;67715;46.170;6.140;2023-04-19T09:29:00;15.25;;;9.40;;
78416;SDS011;67715;46.170;6.140;2023-04-19T09:31:35;18.05;;;9.48;;
78416;SDS011;67715;46.170;6.140;2023-04-19T09:34:14;17.42;;;10.02;;
78416;SDS011;67715;46.170;6.140;2023-04-19T09:36:41;16.15;;;9.18;;
78416;SDS011;67715;46.170;6.140;2023-04-19T09:39:06;17.10;;;9.27;;
78416;SDS011;67715;46.170;6.140;2023-04-19T09:41:32;14.95;;;8.98;;
78416;SDS011;67715;46.170;6.140;2023-04-19T09:44:09;15.80;;;9.13;;
78416;SDS011;67715;46.170;6.140;2023-04-19T09:46:36;14.65;;;8.40;;
78416;SDS011;67715;46.170;6.140;2023-04-19T09:49:14;16.03;;;9.03;;
78416;SDS011;67715;46.170;6.140;2023-04-19T09:51:43;15.20;;;8.82;;
78416;SDS011;67715;46.170;6.140;2023-04-19T09:54:09;14.98;;;8.82;;
78416;SDS011;67715;46.170;6.140;2023-04-19T09:56:35;13.25;;;8.35;;
78416;SDS011;67715;46.170;6.140;2023-04-19T09:59:04;15.20;;;8.65;;
78416;SDS011;67715;46.170;6.140;2023-04-19T10:01:36;15.30;;;8.75;;
78416;SDS011;67715;46.170;6.140;2023-04-19T10:04:04;13.88;;;8.13;;
78416;SDS011;67715;46.170;6.140;2023-04-19T10:06:33;12.82;;;7.63;;
78416;SDS011;67715;46.170;6.140;2023-04-19T10:08:59;12.63;;;8.23;;
78416;SDS011;67715;46.170;6.140;2023-04-19T10:11:28;12.48;;;7.80;;
78416;SDS011;67715;46.170;6.140;2023-04-19T10:13:57;12.95;;;7.95;;
78416;SDS011;67715;46.170;6.140;2023-04-19T10:16:24;11.60;;;7.43;;
78416;SDS011;67715;46.170;6.140;2023-04-19T10:18:50;10.90;;;7.25;;
78416;SDS011;67715;46.170;6.140;2023-04-19T10:21:16;10.27;;;6.43;;
78416;SDS011;67715;46.170;6.140;2023-04-19T10:23:43;10.60;;;6.47;;
78416;SDS011;67715;46.170;6.140;2023-04-19T10:26:08;10.85;;;6.50;;
78416;SDS011;67715;46.170;6.140;2023-04-19T10:28:34;10.20;;;6.40;;
78416;SDS011;67715;46.170;6.140;2023-04-19T10:31:00;12.05;;;7.47;;
78416;SDS011;67715;46.170;6.140;2023-04-19T10:33:28;12.77;;;6.55;;
78416;SDS011;67715;46.170;6.140;2023-04-19T10:35:55;10.80;;;6.78;;
78416;SDS011;67715;46.170;6.140;2023-04-19T10:41:07;11.82;;;7.00;;
78416;SDS011;67715;46.170;6.140;2023-04-19T10:43:37;10.18;;;6.18;;
78416;SDS011;67715;46.170;6.140;2023-04-19T10:46:13;10.23;;;6.45;;
78416;SDS011;67715;46.170;6.140;2023-04-19T10:48:48;12.23;;;6.90;;
78416;SDS011;67715;46.170;6.140;2023-04-19T10:51:33;12.25;;;7.45;;
78416;SDS011;67715;46.170;6.140;2023-04-19T10:54:01;12.70;;;7.65;;
78416;SDS011;67715;46.170;6.140;2023-04-19T11:01:36;10.68;;;6.03;;
78416;SDS011;67715;46.170;6.140;2023-04-19T11:06:34;11.05;;;7.07;;
78416;SDS011;67715;46.170;6.140;2023-04-19T11:09:01;9.45;;;6.20;;
78416;SDS011;67715;46.170;6.140;2023-04-19T11:11:32;11.65;;;7.82;;
78416;SDS011;67715;46.170;6.140;2023-04-19T11:13:57;11.00;;;7.95;;
78416;SDS011;67715;46.170;6.140;2023-04-19T11:16:26;10.88;;;7.32;;
78416;SDS011;67715;46.170;6.140;2023-04-19T11:18:51;12.00;;;7.33;;
78416;SDS011;67715;46.170;6.140;2023-04-19T11:21:17;12.90;;;7.93;;
78416;SDS011;67715;46.170;6.140;2023-04-19T11:23:42;14.00;;;8.43;;
78416;SDS011;67715;46.170;6.140;2023-04-19T11:26:11;10.15;;;6.95;;
78416;SDS011;67715;46.170;6.140;2023-04-19T11:28:36;11.15;;;7.40;;
78416;SDS011;67715;46.170;6.140;2023-04-19T11:31:02;12.23;;;7.78;;
78416;SDS011;67715;46.170;6.140;2023-04-19T11:33:32;13.05;;;8.38;;
78416;SDS011;67715;46.170;6.140;2023-04-19T11:36:00;11.55;;;7.35;;
78416;SDS011;67715;46.170;6.140;2023-04-19T11:38:27;13.48;;;8.18;;
78416;SDS011;67715;46.170;6.140;2023-04-19T11:40:59;12.68;;;8.25;;
78416;SDS011;67715;46.170;6.140;2023-04-19T11:43:31;11.45;;;7.63;;
78416;SDS011;67715;46.170;6.140;2023-04-19T11:45:56;11.32;;;7.82;;
78416;SDS011;67715;46.170;6.140;2023-04-19T11:48:28;12.73;;;8.18;;
78416;SDS011;67715;46.170;6.140;2023-04-19T11:50:56;11.03;;;7.20;;
78416;SDS011;67715;46.170;6.140;2023-04-19T11:53:23;11.80;;;7.38;;
78416;SDS011;67715;46.170;6.140;2023-04-19T11:55:52;13.23;;;8.32;;
78416;SDS011;67715;46.170;6.140;2023-04-19T11:58:28;11.63;;;7.60;;
78416;SDS011;67715;46.170;6.140;2023-04-19T12:03:30;10.82;;;7.18;;
78416;SDS011;67715;46.170;6.140;2023-04-19T12:05:55;11.33;;;7.50;;
78416;SDS011;67715;46.170;6.140;2023-04-19T12:08:28;11.35;;;8.27;;
78416;SDS011;67715;46.170;6.140;2023-04-19T12:10:58;13.38;;;7.88;;
78416;SDS011;67715;46.170;6.140;2023-04-19T12:13:23;11.18;;;7.55;;
78416;SDS011;67715;46.170;6.140;2023-04-19T12:15:49;11.27;;;7.10;;
78416;SDS011;67715;46.170;6.140;2023-04-19T12:18:14;11.97;;;7.40;;
78416;SDS011;67715;46.170;6.140;2023-04-19T12:20:44;10.20;;;6.87;;
78416;SDS011;67715;46.170;6.140;2023-04-19T12:23:11;8.60;;;6.38;;
78416;SDS011;67715;46.170;6.140;2023-04-19T12:25:38;10.75;;;6.30;;
78416;SDS011;67715;46.170;6.140;2023-04-19T12:28:04;11.38;;;6.88;;
78416;SDS011;67715;46.170;6.140;2023-04-19T12:30:29;12.10;;;7.65;;
78416;SDS011;67715;46.170;6.140;2023-04-19T12:32:55;10.30;;;6.75;;
78416;SDS011;67715;46.170;6.140;2023-04-19T12:35:21;11.33;;;7.13;;
78416;SDS011;67715;46.170;6.140;2023-04-19T12:37:47;12.23;;;7.07;;
78416;SDS011;67715;46.170;6.140;2023-04-19T12:40:13;11.55;;;7.32;;
78416;SDS011;67715;46.170;6.140;2023-04-19T12:42:39;9.85;;;7.00;;
78416;SDS011;67715;46.170;6.140;2023-04-19T12:45:04;10.67;;;7.33;;
78416;SDS011;67715;46.170;6.140;2023-04-19T12:47:30;10.23;;;7.13;;
78416;SDS011;67715;46.170;6.140;2023-04-19T12:49:55;10.03;;;7.63;;
78416;SDS011;67715;46.170;6.140;2023-04-19T12:52:21;9.93;;;6.82;;
78416;SDS011;67715;46.170;6.140;2023-04-19T12:54:47;10.00;;;7.15;;
78416;SDS011;67715;46.170;6.140;2023-04-19T12:57:12;10.37;;;7.00;;
78416;SDS011;67715;46.170;6.140;2023-04-19T12:59:37;10.50;;;7.10;;
78416;SDS011;67715;46.170;6.140;2023-04-19T13:02:04;9.97;;;6.97;;
78416;SDS011;67715;46.170;6.140;2023-04-19T13:04:29;9.50;;;7.30;;
78416;SDS011;67715;46.170;6.140;2023-04-19T13:06:55;9.50;;;6.90;;
78416;SDS011;67715;46.170;6.140;2023-04-19T13:09:20;10.40;;;7.07;;
78416;SDS011;67715;46.170;6.140;2023-04-19T13:11:45;9.93;;;6.77;;
78416;SDS011;67715;46.170;6.140;2023-04-19T13:14:10;8.47;;;6.03;;
78416;SDS011;67715;46.170;6.140;2023-04-19T13:16:36;8.93;;;5.87;;
78416;SDS011;67715;46.170;6.140;2023-04-19T13:19:01;10.03;;;6.33;;
78416;SDS011;67715;46.170;6.140;2023-04-19T13:21:26;8.93;;;6.00;;
78416;SDS011;67715;46.170;6.140;2023-04-19T13:23:52;7.13;;;5.83;;
78416;SDS011;67715;46.170;6.140;2023-04-19T13:26:17;9.25;;;6.38;;
78416;SDS011;67715;46.170;6.140;2023-04-19T13:28:43;8.85;;;6.13;;
78416;SDS011;67715;46.170;6.140;2023-04-19T13:31:08;9.43;;;5.72;;
78416;SDS011;67715;46.170;6.140;2023-04-19T13:33:33;9.98;;;6.05;;
78416;SDS011;67715;46.170;6.140;2023-04-19T13:35:59;7.38;;;5.25;;
78416;SDS011;67715;46.170;6.140;2023-04-19T13:38:24;7.57;;;6.00;;
78416;SDS011;67715;46.170;6.140;2023-04-19T13:40:49;8.10;;;5.40;;
78416;SDS011;67715;46.170;6.140;2023-04-19T13:43:15;8.80;;;5.70;;
78416;SDS011;67715;46.170;6.140;2023-04-19T13:45:40;7.77;;;5.53;;
78416;SDS011;67715;46.170;6.140;2023-04-19T13:48:06;6.90;;;4.60;;
78416;SDS011;67715;46.170;6.140;2023-04-19T13:50:31;7.17;;;4.70;;
78416;SDS011;67715;46.170;6.140;2023-04-19T13:52:56;5.40;;;4.33;;
78416;SDS011;67715;46.170;6.140;2023-04-19T13:55:22;6.50;;;4.30;;
78416;SDS011;67715;46.170;6.140;2023-04-19T13:57:47;6.40;;;4.07;;
78416;SDS011;67715;46.170;6.140;2023-04-19T14:00:12;5.72;;;3.92;;
78416;SDS011;67715;46.170;6.140;2023-04-19T14:02:38;8.25;;;4.80;;
78416;SDS011;67715;46.170;6.140;2023-04-19T14:05:03;6.03;;;4.15;;
78416;SDS011;67715;46.170;6.140;2023-04-19T14:07:29;8.05;;;5.35;;
78416;SDS011;67715;46.170;6.140;2023-04-19T14:09:55;7.10;;;4.95;;
78416;SDS011;67715;46.170;6.140;2023-04-19T14:12:21;6.93;;;4.23;;
78416;SDS011;67715;46.170;6.140;2023-04-19T14:14:46;8.73;;;6.37;;
78416;SDS011;67715;46.170;6.140;2023-04-19T14:17:11;9.00;;;6.23;;
78416;SDS011;67715;46.170;6.140;2023-04-19T14:19:37;9.50;;;5.90;;
78416;SDS011;67715;46.170;6.140;2023-04-19T14:22:02;8.80;;;6.50;;
78416;SDS011;67715;46.170;6.140;2023-04-19T14:24:27;10.37;;;7.53;;
78416;SDS011;67715;46.170;6.140;2023-04-19T14:26:52;8.47;;;6.27;;
78416;SDS011;67715;46.170;6.140;2023-04-19T14:29:18;9.97;;;7.27;;
78416;SDS011;67715;46.170;6.140;2023-04-19T14:31:43;9.50;;;6.80;;
78416;SDS011;67715;46.170;6.140;2023-04-19T14:34:08;11.97;;;7.63;;
78416;SDS011;67715;46.170;6.140;2023-04-19T14:36:34;10.27;;;7.50;;
78416;SDS011;67715;46.170;6.140;2023-04-19T14:38:59;10.10;;;6.90;;
78416;SDS011;67715;46.170;6.140;2023-04-19T14:41:24;11.10;;;7.20;;